American Falls, ID

12:43 AM MDT on August 28, 2015 (GMT -0600)
The Hood | | Change Station
CLOSE
Current Station
Personal Weather Station
Location: Rockland, ID
Elevation: 4560 ft
Nearby Weather Stations

Elev 4560 ft 42.57 °N, 112.88 °W | Updated 15 seconds ago

Clear
Clear
55.6 °F
Feels Like 55.6 °F
N
2.2
Wind Variable Wind from SSW

Today
High -- | Low -- °F
--% Chance of Precip.
Yesterday
High -- | Low -- °F
Precip. -- in
6:52 AM 8:13 PM
Waxing Gibbous, 97% visible
Pressure 30.00 in
Visibility 10.0 miles
Clouds Clear
Dew Point 39 °F
Humidity 53%
Rainfall 0.00 in
Snow Depth Not available.
UV 0 out of 12
Pollen 7.90 out of 12
Air Quality Not available.
Flu Activity Not available.
METAR KPIH 280553Z AUTO 00000KT 10SM CLR 20/02 A3015 RMK AO2 SLP159 T02000022 10311 20178 51004
Pressure 30.00 in
Visibility 10.0 miles
Clouds Clear
Dew Point 39 °F
Humidity 53%
Rainfall 0.00 in
Snow Depth Not available.
UV 0 out of 12
Pollen 7.90 out of 12
Air Quality Not available.
Flu Activity Not available.
METAR KPIH 280553Z AUTO 00000KT 10SM CLR 20/02 A3015 RMK AO2 SLP159 T02000022 10311 20178 51004

10-Day Weather Forecast

×

Almanac

Astronomy

Aug. 28, 2015 Rise Set
Actual Time
Civil Twilight
Nautical Twilight
Astronomical Twilight
Moon
Length of Visible Light
Length of Day
Tomorrow will be .
, % of the Moon is Illuminated

Today's Extremes

State Highs State Lows

Community

WunderPhotos

Upload Photos

1,850,341 photos uploaded!

WunderBlogs® & News

Nearby

Air Quality

  Air Quality AQ Index Pollutant
Not available.

Snow Depth

Station Depth Elevation

Earthquake Activity

City Distance Mag. Time & Date
Minimum magnitude displayed is 2.5.

Coastal Water Temperatures

Place Temperature

Stations

Nearby Weather Stations

Station Location Temp. Windchill Dew Point Humidity Wind Precip. Elev Updated Type